Hovedside
METAR-TAF:

METAR-TAF

Lufthavner :

Vadsø lufthavn

Vadsø, Norge

breddegrad: 70-04N, lengdegrad: 029-51E, høyde over havet: 3 m

Gjeldene værobservasjon

Denne rapporten ble laget for 21 minutter siden, klokken 06:50 UTC
Vind 4 kt fra Sør-sørøst
Temperatur 5°C
Luftfuktighet 81%
Trykk 1006 hPa
Sikt 10 km eller mer
Få skyer i en høyde av 2000 ft
Brutte skyer i en høyde av 4000 ft

METAR: ENVD 230650Z 15004KT 9999 FEW020 BKN040 05/02 Q1006

Tid: 09:11 (07:11 UTC)

Varsel

Denne rapporten ble laget for 2 timer og 11 minutter siden, klokken 05:00 UTC
Varsel gyldig fra 23. klokken 06 UTC til 23. klokken 15 UTC
Vind 8 kt fra Vest
Sikt 10 km eller mer
Få skyer i en høyde av 1500 ft
Brutte skyer i en høyde av 3000 ft
Midlertidig
fra 23. klokken 06 UTC til 23. klokken 15 UTC
Vind 20 kt fra Vest med vindkast opp mot 30 kt

TAF: ENVD 230500Z 2306/2315 27008KT 9999 FEW015 BKN030 TEMPO 2306/2315 27020G30KT

Værobservasjoner og værvarsel for over 4000 flyplasser (METAR- og TAF-rapporter).

Tilgjengelige stasjoner er representert av de røde og gule prikkene på kartet.

Hold musepekeren over prikken for å se navnet på stasjonen.

Klikk så for å se værobservasjoner og -varsler.

For å forandre kartet kan du klikke på den grønne knappen med svart kryss for å zoome inn, på den grønne knappen med strek for å zoome ut, eller på de grønne pilene for å se tilstøtende kart.


METAR-TAF: